Terminal Aerodrome Forecast
Issued by NWS Burlington, VT

Home | Current Version | Previous Version | Text Only | Print | Product List | Glossary On
Versions: 1 2 3 4 5 6 7 8 9 10 11 12 13 14 15 16 17 18 19 20 21
000
FTUS41 KBTV 181740
TAFBTV
TAF
KBTV 181740Z 1818/1918 29008KT P6SM BKN035
     FM190000 VRB04KT P6SM FEW060
     FM190900 18007KT P6SM BKN150
     FM191200 18012G20KT P6SM BKN200=

USA.gov is the U.S. government's official web portal to all federal, state and local government web resources and services.